sensor_id;sensor_type;location;lat;lon;timestamp;P1;durP1;ratioP1;P2;durP2;ratioP2
44989;SDS011;30723;51.206;3.326;2022-08-19T00:00:45;35.83;;;22.98;;
44989;SDS011;30723;51.206;3.326;2022-08-19T00:03:11;38.88;;;21.98;;
44989;SDS011;30723;51.206;3.326;2022-08-19T00:05:38;36.30;;;22.30;;
44989;SDS011;30723;51.206;3.326;2022-08-19T00:08:05;33.83;;;21.98;;
44989;SDS011;30723;51.206;3.326;2022-08-19T00:10:31;34.97;;;21.83;;
44989;SDS011;30723;51.206;3.326;2022-08-19T00:12:59;39.92;;;22.30;;
44989;SDS011;30723;51.206;3.326;2022-08-19T00:15:25;34.38;;;22.60;;
44989;SDS011;30723;51.206;3.326;2022-08-19T00:17:51;35.25;;;22.75;;
44989;SDS011;30723;51.206;3.326;2022-08-19T00:20:19;34.88;;;22.25;;
44989;SDS011;30723;51.206;3.326;2022-08-19T00:22:46;36.47;;;21.20;;
44989;SDS011;30723;51.206;3.326;2022-08-19T00:25:14;34.78;;;21.75;;
44989;SDS011;30723;51.206;3.326;2022-08-19T00:27:41;36.67;;;21.88;;
44989;SDS011;30723;51.206;3.326;2022-08-19T00:30:08;35.22;;;22.02;;
44989;SDS011;30723;51.206;3.326;2022-08-19T00:32:37;36.90;;;22.05;;
44989;SDS011;30723;51.206;3.326;2022-08-19T00:35:03;31.80;;;21.75;;
44989;SDS011;30723;51.206;3.326;2022-08-19T00:37:30;41.47;;;22.10;;
44989;SDS011;30723;51.206;3.326;2022-08-19T00:39:58;41.30;;;21.42;;
44989;SDS011;30723;51.206;3.326;2022-08-19T00:42:24;32.30;;;20.38;;
44989;SDS011;30723;51.206;3.326;2022-08-19T00:44:53;37.63;;;22.15;;
44989;SDS011;30723;51.206;3.326;2022-08-19T00:47:19;32.72;;;21.08;;
44989;SDS011;30723;51.206;3.326;2022-08-19T00:49:48;38.05;;;21.35;;
44989;SDS011;30723;51.206;3.326;2022-08-19T00:52:33;34.97;;;21.30;;
44989;SDS011;30723;51.206;3.326;2022-08-19T00:55:04;41.95;;;21.33;;
44989;SDS011;30723;51.206;3.326;2022-08-19T00:57:36;29.65;;;20.52;;
44989;SDS011;30723;51.206;3.326;2022-08-19T01:00:08;41.53;;;22.15;;
44989;SDS011;30723;51.206;3.326;2022-08-19T01:02:39;41.60;;;21.10;;
44989;SDS011;30723;51.206;3.326;2022-08-19T01:05:14;33.50;;;21.13;;
44989;SDS011;30723;51.206;3.326;2022-08-19T01:07:46;37.72;;;21.00;;
44989;SDS011;30723;51.206;3.326;2022-08-19T01:10:16;36.10;;;20.90;;
44989;SDS011;30723;51.206;3.326;2022-08-19T01:12:47;35.28;;;21.27;;
44989;SDS011;30723;51.206;3.326;2022-08-19T01:15:17;38.97;;;21.75;;
44989;SDS011;30723;51.206;3.326;2022-08-19T01:17:47;36.85;;;21.50;;
44989;SDS011;30723;51.206;3.326;2022-08-19T01:20:15;40.05;;;22.00;;
44989;SDS011;30723;51.206;3.326;2022-08-19T01:22:49;37.17;;;22.27;;
44989;SDS011;30723;51.206;3.326;2022-08-19T01:25:25;42.55;;;21.73;;
44989;SDS011;30723;51.206;3.326;2022-08-19T01:27:56;37.33;;;21.30;;
44989;SDS011;30723;51.206;3.326;2022-08-19T01:30:24;40.40;;;21.35;;
44989;SDS011;30723;51.206;3.326;2022-08-19T01:32:56;38.95;;;21.10;;
44989;SDS011;30723;51.206;3.326;2022-08-19T01:35:26;43.78;;;21.67;;
44989;SDS011;30723;51.206;3.326;2022-08-19T01:38:05;45.53;;;22.35;;
44989;SDS011;30723;51.206;3.326;2022-08-19T01:40:35;47.58;;;25.00;;
44989;SDS011;30723;51.206;3.326;2022-08-19T01:43:04;41.92;;;22.63;;
44989;SDS011;30723;51.206;3.326;2022-08-19T01:45:32;36.65;;;22.92;;
44989;SDS011;30723;51.206;3.326;2022-08-19T01:48:00;41.28;;;22.75;;
44989;SDS011;30723;51.206;3.326;2022-08-19T01:50:28;46.65;;;23.40;;
44989;SDS011;30723;51.206;3.326;2022-08-19T01:52:56;46.45;;;23.95;;
44989;SDS011;30723;51.206;3.326;2022-08-19T01:55:22;48.25;;;24.10;;
44989;SDS011;30723;51.206;3.326;2022-08-19T01:57:50;44.50;;;25.02;;
44989;SDS011;30723;51.206;3.326;2022-08-19T02:00:20;47.67;;;24.90;;
44989;SDS011;30723;51.206;3.326;2022-08-19T02:02:48;42.13;;;25.25;;
44989;SDS011;30723;51.206;3.326;2022-08-19T02:05:15;48.55;;;25.00;;
44989;SDS011;30723;51.206;3.326;2022-08-19T02:07:43;47.70;;;24.83;;
44989;SDS011;30723;51.206;3.326;2022-08-19T02:10:12;42.28;;;25.70;;
44989;SDS011;30723;51.206;3.326;2022-08-19T02:12:42;44.38;;;24.50;;
44989;SDS011;30723;51.206;3.326;2022-08-19T02:15:08;41.53;;;25.05;;
44989;SDS011;30723;51.206;3.326;2022-08-19T02:17:36;40.55;;;23.67;;
44989;SDS011;30723;51.206;3.326;2022-08-19T02:20:03;40.13;;;23.98;;
44989;SDS011;30723;51.206;3.326;2022-08-19T02:22:31;45.10;;;24.27;;
44989;SDS011;30723;51.206;3.326;2022-08-19T02:24:58;47.72;;;25.45;;
44989;SDS011;30723;51.206;3.326;2022-08-19T02:27:25;48.35;;;25.02;;
44989;SDS011;30723;51.206;3.326;2022-08-19T02:29:51;47.47;;;23.85;;
44989;SDS011;30723;51.206;3.326;2022-08-19T02:32:18;48.45;;;24.05;;
44989;SDS011;30723;51.206;3.326;2022-08-19T02:34:45;45.10;;;24.08;;
44989;SDS011;30723;51.206;3.326;2022-08-19T02:37:12;47.67;;;24.13;;
44989;SDS011;30723;51.206;3.326;2022-08-19T02:39:57;42.00;;;22.52;;
44989;SDS011;30723;51.206;3.326;2022-08-19T02:42:25;39.78;;;22.75;;
44989;SDS011;30723;51.206;3.326;2022-08-19T02:44:51;38.25;;;22.08;;
44989;SDS011;30723;51.206;3.326;2022-08-19T02:47:20;41.58;;;21.88;;
44989;SDS011;30723;51.206;3.326;2022-08-19T02:49:47;39.85;;;22.02;;
44989;SDS011;30723;51.206;3.326;2022-08-19T02:52:15;45.95;;;22.05;;
44989;SDS011;30723;51.206;3.326;2022-08-19T02:54:41;36.67;;;21.08;;
44989;SDS011;30723;51.206;3.326;2022-08-19T02:57:08;36.85;;;20.98;;
44989;SDS011;30723;51.206;3.326;2022-08-19T02:59:34;39.50;;;21.30;;
44989;SDS011;30723;51.206;3.326;2022-08-19T03:02:01;42.22;;;20.77;;
44989;SDS011;30723;51.206;3.326;2022-08-19T03:04:28;37.03;;;20.02;;
44989;SDS011;30723;51.206;3.326;2022-08-19T03:06:55;36.83;;;21.15;;
44989;SDS011;30723;51.206;3.326;2022-08-19T03:09:22;41.42;;;21.25;;
44989;SDS011;30723;51.206;3.326;2022-08-19T03:11:48;33.00;;;20.63;;
44989;SDS011;30723;51.206;3.326;2022-08-19T03:14:15;37.45;;;20.77;;
44989;SDS011;30723;51.206;3.326;2022-08-19T03:16:49;43.15;;;19.25;;
44989;SDS011;30723;51.206;3.326;2022-08-19T03:19:31;36.65;;;19.90;;
44989;SDS011;30723;51.206;3.326;2022-08-19T03:21:58;36.58;;;19.13;;
44989;SDS011;30723;51.206;3.326;2022-08-19T03:24:25;36.25;;;20.50;;
44989;SDS011;30723;51.206;3.326;2022-08-19T03:26:53;39.70;;;20.00;;
44989;SDS011;30723;51.206;3.326;2022-08-19T03:29:22;34.08;;;19.52;;
44989;SDS011;30723;51.206;3.326;2022-08-19T03:31:50;37.05;;;19.42;;
44989;SDS011;30723;51.206;3.326;2022-08-19T03:34:26;38.17;;;18.95;;
44989;SDS011;30723;51.206;3.326;2022-08-19T03:36:55;34.85;;;18.95;;
44989;SDS011;30723;51.206;3.326;2022-08-19T03:39:25;34.25;;;18.95;;
44989;SDS011;30723;51.206;3.326;2022-08-19T03:41:51;39.92;;;19.17;;
44989;SDS011;30723;51.206;3.326;2022-08-19T03:44:22;34.80;;;19.25;;
44989;SDS011;30723;51.206;3.326;2022-08-19T03:46:49;33.55;;;17.70;;
44989;SDS011;30723;51.206;3.326;2022-08-19T03:49:19;34.08;;;17.40;;
44989;SDS011;30723;51.206;3.326;2022-08-19T03:51:48;35.15;;;17.55;;
44989;SDS011;30723;51.206;3.326;2022-08-19T03:54:16;36.47;;;18.13;;
44989;SDS011;30723;51.206;3.326;2022-08-19T03:56:46;34.90;;;17.55;;
44989;SDS011;30723;51.206;3.326;2022-08-19T03:59:16;31.67;;;16.88;;
44989;SDS011;30723;51.206;3.326;2022-08-19T04:01:44;35.42;;;17.88;;
44989;SDS011;30723;51.206;3.326;2022-08-19T04:04:11;35.35;;;17.63;;
44989;SDS011;30723;51.206;3.326;2022-08-19T04:06:39;35.72;;;18.25;;
44989;SDS011;30723;51.206;3.326;2022-08-19T04:09:07;33.83;;;17.05;;
44989;SDS011;30723;51.206;3.326;2022-08-19T04:11:47;42.00;;;17.98;;
44989;SDS011;30723;51.206;3.326;2022-08-19T04:14:30;32.15;;;17.92;;
44989;SDS011;30723;51.206;3.326;2022-08-19T04:16:59;37.10;;;17.33;;
44989;SDS011;30723;51.206;3.326;2022-08-19T04:19:29;31.85;;;17.55;;
44989;SDS011;30723;51.206;3.326;2022-08-19T04:21:56;35.17;;;16.58;;
44989;SDS011;30723;51.206;3.326;2022-08-19T04:24:22;36.70;;;17.73;;
44989;SDS011;30723;51.206;3.326;2022-08-19T04:26:48;31.30;;;17.42;;
44989;SDS011;30723;51.206;3.326;2022-08-19T04:29:16;37.08;;;17.20;;
44989;SDS011;30723;51.206;3.326;2022-08-19T04:31:46;28.70;;;16.67;;
44989;SDS011;30723;51.206;3.326;2022-08-19T04:34:14;36.10;;;17.67;;
44989;SDS011;30723;51.206;3.326;2022-08-19T04:36:43;40.67;;;17.33;;
44989;SDS011;30723;51.206;3.326;2022-08-19T04:39:12;45.88;;;17.90;;
44989;SDS011;30723;51.206;3.326;2022-08-19T04:41:41;30.95;;;17.85;;
44989;SDS011;30723;51.206;3.326;2022-08-19T04:44:28;34.40;;;16.27;;
44989;SDS011;30723;51.206;3.326;2022-08-19T04:46:59;31.50;;;16.25;;
44989;SDS011;30723;51.206;3.326;2022-08-19T04:49:26;31.65;;;16.70;;
44989;SDS011;30723;51.206;3.326;2022-08-19T04:51:53;29.92;;;16.67;;
44989;SDS011;30723;51.206;3.326;2022-08-19T04:54:21;35.72;;;16.75;;
44989;SDS011;30723;51.206;3.326;2022-08-19T04:56:50;34.97;;;17.27;;
44989;SDS011;30723;51.206;3.326;2022-08-19T04:59:19;34.90;;;17.13;;
44989;SDS011;30723;51.206;3.326;2022-08-19T05:01:47;31.30;;;15.38;;
44989;SDS011;30723;51.206;3.326;2022-08-19T05:04:15;30.00;;;15.82;;
44989;SDS011;30723;51.206;3.326;2022-08-19T05:06:43;32.78;;;16.58;;
44989;SDS011;30723;51.206;3.326;2022-08-19T05:09:10;35.28;;;15.55;;
44989;SDS011;30723;51.206;3.326;2022-08-19T05:11:36;34.28;;;15.38;;
44989;SDS011;30723;51.206;3.326;2022-08-19T05:14:04;24.95;;;14.38;;
44989;SDS011;30723;51.206;3.326;2022-08-19T05:16:31;37.85;;;15.07;;
44989;SDS011;30723;51.206;3.326;2022-08-19T05:18:57;28.65;;;14.32;;
44989;SDS011;30723;51.206;3.326;2022-08-19T05:21:43;26.50;;;13.68;;
44989;SDS011;30723;51.206;3.326;2022-08-19T05:24:29;31.73;;;13.93;;
44989;SDS011;30723;51.206;3.326;2022-08-19T05:26:59;28.88;;;13.77;;
44989;SDS011;30723;51.206;3.326;2022-08-19T05:29:28;30.75;;;13.90;;
44989;SDS011;30723;51.206;3.326;2022-08-19T05:31:56;31.90;;;14.07;;
44989;SDS011;30723;51.206;3.326;2022-08-19T05:34:23;33.08;;;14.18;;
44989;SDS011;30723;51.206;3.326;2022-08-19T05:36:52;26.13;;;12.90;;
44989;SDS011;30723;51.206;3.326;2022-08-19T05:41:51;21.27;;;12.38;;
44989;SDS011;30723;51.206;3.326;2022-08-19T05:44:22;20.23;;;10.80;;
44989;SDS011;30723;51.206;3.326;2022-08-19T05:46:51;26.17;;;12.05;;
44989;SDS011;30723;51.206;3.326;2022-08-19T05:49:19;18.80;;;11.15;;
44989;SDS011;30723;51.206;3.326;2022-08-19T05:51:47;19.73;;;10.80;;
44989;SDS011;30723;51.206;3.326;2022-08-19T05:54:15;19.05;;;11.10;;
44989;SDS011;30723;51.206;3.326;2022-08-19T05:56:41;21.73;;;11.93;;
44989;SDS011;30723;51.206;3.326;2022-08-19T05:59:09;19.40;;;9.43;;
44989;SDS011;30723;51.206;3.326;2022-08-19T06:01:37;20.00;;;9.73;;
44989;SDS011;30723;51.206;3.326;2022-08-19T06:04:05;24.13;;;11.43;;
44989;SDS011;30723;51.206;3.326;2022-08-19T06:06:32;20.58;;;10.77;;
44989;SDS011;30723;51.206;3.326;2022-08-19T06:09:01;16.33;;;10.27;;
44989;SDS011;30723;51.206;3.326;2022-08-19T06:12:01;21.33;;;10.70;;
44989;SDS011;30723;51.206;3.326;2022-08-19T06:14:26;16.35;;;9.93;;
44989;SDS011;30723;51.206;3.326;2022-08-19T06:19:22;13.90;;;9.27;;
44989;SDS011;30723;51.206;3.326;2022-08-19T06:21:52;16.10;;;9.23;;
44989;SDS011;30723;51.206;3.326;2022-08-19T06:24:20;16.83;;;9.80;;
44989;SDS011;30723;51.206;3.326;2022-08-19T06:26:49;12.50;;;8.65;;
44989;SDS011;30723;51.206;3.326;2022-08-19T06:29:16;18.15;;;9.38;;
44989;SDS011;30723;51.206;3.326;2022-08-19T06:31:45;20.23;;;9.45;;
44989;SDS011;30723;51.206;3.326;2022-08-19T06:34:14;15.90;;;8.90;;
44989;SDS011;30723;51.206;3.326;2022-08-19T06:36:44;15.02;;;8.43;;
44989;SDS011;30723;51.206;3.326;2022-08-19T06:39:13;13.50;;;8.13;;
44989;SDS011;30723;51.206;3.326;2022-08-19T06:41:44;19.25;;;9.07;;
44989;SDS011;30723;51.206;3.326;2022-08-19T06:44:14;15.57;;;9.00;;
44989;SDS011;30723;51.206;3.326;2022-08-19T06:46:40;16.45;;;8.60;;
44989;SDS011;30723;51.206;3.326;2022-08-19T06:49:08;17.77;;;9.85;;
44989;SDS011;30723;51.206;3.326;2022-08-19T06:51:39;13.13;;;9.25;;
44989;SDS011;30723;51.206;3.326;2022-08-19T06:54:07;15.70;;;9.35;;
44989;SDS011;30723;51.206;3.326;2022-08-19T06:56:33;17.77;;;10.32;;
44989;SDS011;30723;51.206;3.326;2022-08-19T06:59:04;17.17;;;10.07;;
44989;SDS011;30723;51.206;3.326;2022-08-19T07:01:39;18.08;;;10.20;;
44989;SDS011;30723;51.206;3.326;2022-08-19T07:04:08;20.15;;;10.90;;
44989;SDS011;30723;51.206;3.326;2022-08-19T07:06:35;19.92;;;10.57;;
44989;SDS011;30723;51.206;3.326;2022-08-19T07:09:01;20.23;;;9.52;;
44989;SDS011;30723;51.206;3.326;2022-08-19T07:11:32;15.70;;;7.82;;
44989;SDS011;30723;51.206;3.326;2022-08-19T07:13:59;18.70;;;8.38;;
44989;SDS011;30723;51.206;3.326;2022-08-19T07:16:25;16.17;;;7.85;;
44989;SDS011;30723;51.206;3.326;2022-08-19T07:18:52;14.15;;;7.65;;
44989;SDS011;30723;51.206;3.326;2022-08-19T07:21:21;14.45;;;7.30;;
44989;SDS011;30723;51.206;3.326;2022-08-19T07:23:51;11.98;;;7.10;;
44989;SDS011;30723;51.206;3.326;2022-08-19T07:26:19;13.82;;;6.68;;
44989;SDS011;30723;51.206;3.326;2022-08-19T07:28:55;11.57;;;6.50;;
44989;SDS011;30723;51.206;3.326;2022-08-19T07:31:24;13.25;;;6.85;;
44989;SDS011;30723;51.206;3.326;2022-08-19T07:33:52;13.65;;;6.10;;
44989;SDS011;30723;51.206;3.326;2022-08-19T07:36:22;14.23;;;6.40;;
44989;SDS011;30723;51.206;3.326;2022-08-19T07:38:50;10.50;;;5.90;;
44989;SDS011;30723;51.206;3.326;2022-08-19T07:41:18;14.25;;;6.90;;
44989;SDS011;30723;51.206;3.326;2022-08-19T07:43:47;13.13;;;6.25;;
44989;SDS011;30723;51.206;3.326;2022-08-19T07:46:14;14.52;;;5.65;;
44989;SDS011;30723;51.206;3.326;2022-08-19T07:48:40;7.82;;;4.85;;
44989;SDS011;30723;51.206;3.326;2022-08-19T07:51:09;12.50;;;6.78;;
44989;SDS011;30723;51.206;3.326;2022-08-19T07:53:36;12.43;;;7.50;;
44989;SDS011;30723;51.206;3.326;2022-08-19T07:56:03;13.88;;;8.20;;
44989;SDS011;30723;51.206;3.326;2022-08-19T07:58:31;12.48;;;7.85;;
44989;SDS011;30723;51.206;3.326;2022-08-19T08:01:03;14.52;;;8.35;;
44989;SDS011;30723;51.206;3.326;2022-08-19T08:03:30;15.23;;;8.68;;
44989;SDS011;30723;51.206;3.326;2022-08-19T08:06:15;14.43;;;8.60;;
44989;SDS011;30723;51.206;3.326;2022-08-19T08:09:00;13.93;;;7.88;;
44989;SDS011;30723;51.206;3.326;2022-08-19T08:11:36;13.60;;;7.57;;
44989;SDS011;30723;51.206;3.326;2022-08-19T08:14:07;10.20;;;7.85;;
44989;SDS011;30723;51.206;3.326;2022-08-19T08:16:35;13.65;;;8.25;;
44989;SDS011;30723;51.206;3.326;2022-08-19T08:19:03;13.52;;;8.43;;
44989;SDS011;30723;51.206;3.326;2022-08-19T08:21:31;12.13;;;9.02;;
44989;SDS011;30723;51.206;3.326;2022-08-19T08:23:59;14.65;;;9.00;;
44989;SDS011;30723;51.206;3.326;2022-08-19T08:26:25;12.20;;;9.27;;
44989;SDS011;30723;51.206;3.326;2022-08-19T08:28:52;15.00;;;10.07;;
44989;SDS011;30723;51.206;3.326;2022-08-19T08:31:19;14.93;;;9.48;;
44989;SDS011;30723;51.206;3.326;2022-08-19T08:33:45;18.13;;;10.38;;
44989;SDS011;30723;51.206;3.326;2022-08-19T08:36:12;14.43;;;10.20;;
44989;SDS011;30723;51.206;3.326;2022-08-19T08:38:39;17.08;;;12.43;;
44989;SDS011;30723;51.206;3.326;2022-08-19T08:41:13;17.52;;;12.75;;
44989;SDS011;30723;51.206;3.326;2022-08-19T08:43:56;18.25;;;12.98;;
44989;SDS011;30723;51.206;3.326;2022-08-19T08:49:15;20.48;;;12.48;;
44989;SDS011;30723;51.206;3.326;2022-08-19T08:52:10;19.35;;;12.98;;
44989;SDS011;30723;51.206;3.326;2022-08-19T08:54:40;18.02;;;12.63;;
44989;SDS011;30723;51.206;3.326;2022-08-19T08:57:15;15.02;;;10.43;;
44989;SDS011;30723;51.206;3.326;2022-08-19T08:59:57;15.65;;;10.13;;
44989;SDS011;30723;51.206;3.326;2022-08-19T09:02:28;14.73;;;10.02;;
44989;SDS011;30723;51.206;3.326;2022-08-19T09:04:55;12.65;;;9.45;;
44989;SDS011;30723;51.206;3.326;2022-08-19T09:10:10;10.93;;;8.70;;
44989;SDS011;30723;51.206;3.326;2022-08-19T09:15:56;17.58;;;9.57;;
44989;SDS011;30723;51.206;3.326;2022-08-19T09:18:49;13.68;;;9.38;;
44989;SDS011;30723;51.206;3.326;2022-08-19T09:21:18;11.40;;;8.32;;
44989;SDS011;30723;51.206;3.326;2022-08-19T09:23:47;11.70;;;8.55;;
44989;SDS011;30723;51.206;3.326;2022-08-19T09:26:16;13.10;;;8.00;;
44989;SDS011;30723;51.206;3.326;2022-08-19T09:28:46;9.82;;;6.85;;
44989;SDS011;30723;51.206;3.326;2022-08-19T09:31:15;9.80;;;6.80;;
44989;SDS011;30723;51.206;3.326;2022-08-19T09:33:47;6.80;;;5.55;;
44989;SDS011;30723;51.206;3.326;2022-08-19T09:36:15;7.68;;;5.45;;
44989;SDS011;30723;51.206;3.326;2022-08-19T09:38:44;7.25;;;5.15;;
44989;SDS011;30723;51.206;3.326;2022-08-19T09:41:12;6.95;;;5.50;;
44989;SDS011;30723;51.206;3.326;2022-08-19T09:43:41;7.28;;;5.53;;
44989;SDS011;30723;51.206;3.326;2022-08-19T09:46:10;9.32;;;5.50;;
44989;SDS011;30723;51.206;3.326;2022-08-19T09:48:40;8.65;;;6.47;;
44989;SDS011;30723;51.206;3.326;2022-08-19T09:51:13;10.05;;;6.78;;
44989;SDS011;30723;51.206;3.326;2022-08-19T09:53:58;11.18;;;7.93;;
44989;SDS011;30723;51.206;3.326;2022-08-19T09:56:26;13.23;;;8.10;;
44989;SDS011;30723;51.206;3.326;2022-08-19T09:58:54;9.75;;;7.72;;
44989;SDS011;30723;51.206;3.326;2022-08-19T10:01:23;10.90;;;7.53;;
44989;SDS011;30723;51.206;3.326;2022-08-19T10:03:53;11.00;;;7.72;;
44989;SDS011;30723;51.206;3.326;2022-08-19T10:06:22;11.25;;;7.78;;
44989;SDS011;30723;51.206;3.326;2022-08-19T10:08:50;8.88;;;7.90;;
44989;SDS011;30723;51.206;3.326;2022-08-19T10:11:18;10.50;;;7.93;;
44989;SDS011;30723;51.206;3.326;2022-08-19T10:13:45;12.90;;;11.52;;
44989;SDS011;30723;51.206;3.326;2022-08-19T10:16:14;12.55;;;11.25;;
44989;SDS011;30723;51.206;3.326;2022-08-19T10:18:47;14.23;;;11.68;;
44989;SDS011;30723;51.206;3.326;2022-08-19T10:21:24;18.13;;;13.00;;
44989;SDS011;30723;51.206;3.326;2022-08-19T10:23:56;14.55;;;11.85;;
44989;SDS011;30723;51.206;3.326;2022-08-19T10:26:28;16.75;;;12.27;;
44989;SDS011;30723;51.206;3.326;2022-08-19T10:28:56;17.50;;;12.65;;
44989;SDS011;30723;51.206;3.326;2022-08-19T10:31:26;15.40;;;12.77;;
44989;SDS011;30723;51.206;3.326;2022-08-19T10:33:54;22.90;;;15.35;;
44989;SDS011;30723;51.206;3.326;2022-08-19T10:36:26;22.02;;;15.43;;
44989;SDS011;30723;51.206;3.326;2022-08-19T10:38:58;18.55;;;13.70;;
44989;SDS011;30723;51.206;3.326;2022-08-19T10:41:31;17.75;;;12.60;;
44989;SDS011;30723;51.206;3.326;2022-08-19T10:44:04;15.80;;;10.82;;
44989;SDS011;30723;51.206;3.326;2022-08-19T10:46:35;12.90;;;8.65;;
44989;SDS011;30723;51.206;3.326;2022-08-19T10:49:03;10.37;;;8.60;;
44989;SDS011;30723;51.206;3.326;2022-08-19T10:51:31;18.73;;;13.48;;
44989;SDS011;30723;51.206;3.326;2022-08-19T10:54:17;18.50;;;13.52;;
44989;SDS011;30723;51.206;3.326;2022-08-19T10:56:43;16.75;;;14.10;;
44989;SDS011;30723;51.206;3.326;2022-08-19T10:59:23;18.42;;;14.20;;
44989;SDS011;30723;51.206;3.326;2022-08-19T11:01:58;15.65;;;12.88;;
44989;SDS011;30723;51.206;3.326;2022-08-19T11:04:26;13.95;;;10.70;;
44989;SDS011;30723;51.206;3.326;2022-08-19T11:06:53;13.75;;;9.52;;
44989;SDS011;30723;51.206;3.326;2022-08-19T11:09:21;8.02;;;6.75;;
44989;SDS011;30723;51.206;3.326;2022-08-19T11:11:50;7.80;;;6.20;;
44989;SDS011;30723;51.206;3.326;2022-08-19T11:14:18;7.45;;;5.10;;
44989;SDS011;30723;51.206;3.326;2022-08-19T11:16:46;6.32;;;3.85;;
44989;SDS011;30723;51.206;3.326;2022-08-19T11:19:14;3.70;;;2.90;;
44989;SDS011;30723;51.206;3.326;2022-08-19T11:21:45;4.15;;;2.15;;
44989;SDS011;30723;51.206;3.326;2022-08-19T11:24:14;2.33;;;1.83;;
44989;SDS011;30723;51.206;3.326;2022-08-19T11:26:44;2.83;;;2.13;;
44989;SDS011;30723;51.206;3.326;2022-08-19T11:29:15;6.53;;;2.30;;
44989;SDS011;30723;51.206;3.326;2022-08-19T11:31:44;3.75;;;2.38;;
44989;SDS011;30723;51.206;3.326;2022-08-19T11:34:15;6.10;;;4.78;;
44989;SDS011;30723;51.206;3.326;2022-08-19T11:39:12;6.53;;;4.45;;
44989;SDS011;30723;51.206;3.326;2022-08-19T11:41:40;7.78;;;5.18;;
44989;SDS011;30723;51.206;3.326;2022-08-19T11:44:07;9.48;;;5.70;;
44989;SDS011;30723;51.206;3.326;2022-08-19T11:46:35;6.03;;;4.85;;
44989;SDS011;30723;51.206;3.326;2022-08-19T11:49:02;6.60;;;4.63;;
44989;SDS011;30723;51.206;3.326;2022-08-19T11:51:30;7.35;;;5.63;;
44989;SDS011;30723;51.206;3.326;2022-08-19T11:53:59;9.40;;;5.40;;
44989;SDS011;30723;51.206;3.326;2022-08-19T11:56:25;7.60;;;4.90;;
44989;SDS011;30723;51.206;3.326;2022-08-19T11:58:53;6.57;;;3.60;;
44989;SDS011;30723;51.206;3.326;2022-08-19T12:01:22;8.05;;;3.65;;
44989;SDS011;30723;51.206;3.326;2022-08-19T12:03:50;6.57;;;3.60;;
44989;SDS011;30723;51.206;3.326;2022-08-19T12:06:23;5.00;;;3.40;;
44989;SDS011;30723;51.206;3.326;2022-08-19T12:09:06;6.28;;;3.65;;
44989;SDS011;30723;51.206;3.326;2022-08-19T12:11:34;14.40;;;4.78;;
44989;SDS011;30723;51.206;3.326;2022-08-19T12:14:02;30.92;;;8.95;;
44989;SDS011;30723;51.206;3.326;2022-08-19T12:16:30;17.38;;;8.38;;
44989;SDS011;30723;51.206;3.326;2022-08-19T12:18:58;16.50;;;8.57;;
44989;SDS011;30723;51.206;3.326;2022-08-19T12:21:29;15.07;;;9.90;;
44989;SDS011;30723;51.206;3.326;2022-08-19T12:23:58;15.80;;;10.18;;
44989;SDS011;30723;51.206;3.326;2022-08-19T12:26:26;15.75;;;11.77;;
44989;SDS011;30723;51.206;3.326;2022-08-19T12:28:54;18.10;;;10.80;;
44989;SDS011;30723;51.206;3.326;2022-08-19T12:31:24;13.40;;;8.98;;
44989;SDS011;30723;51.206;3.326;2022-08-19T12:33:53;10.93;;;8.45;;
44989;SDS011;30723;51.206;3.326;2022-08-19T12:36:20;13.18;;;9.40;;
44989;SDS011;30723;51.206;3.326;2022-08-19T12:38:48;13.50;;;9.48;;
44989;SDS011;30723;51.206;3.326;2022-08-19T12:41:16;12.25;;;8.15;;
44989;SDS011;30723;51.206;3.326;2022-08-19T12:43:43;8.35;;;7.05;;
44989;SDS011;30723;51.206;3.326;2022-08-19T12:46:10;10.25;;;7.30;;
44989;SDS011;30723;51.206;3.326;2022-08-19T12:48:37;16.92;;;8.65;;
44989;SDS011;30723;51.206;3.326;2022-08-19T12:51:08;12.85;;;8.38;;
44989;SDS011;30723;51.206;3.326;2022-08-19T12:53:42;9.90;;;7.78;;
44989;SDS011;30723;51.206;3.326;2022-08-19T12:56:08;9.63;;;8.25;;
44989;SDS011;30723;51.206;3.326;2022-08-19T12:58:36;14.88;;;8.85;;
44989;SDS011;30723;51.206;3.326;2022-08-19T13:01:10;13.32;;;8.63;;
44989;SDS011;30723;51.206;3.326;2022-08-19T13:03:53;12.02;;;7.63;;
44989;SDS011;30723;51.206;3.326;2022-08-19T13:06:20;13.90;;;7.63;;
44989;SDS011;30723;51.206;3.326;2022-08-19T13:08:47;11.43;;;7.38;;
44989;SDS011;30723;51.206;3.326;2022-08-19T13:11:15;9.27;;;6.32;;
44989;SDS011;30723;51.206;3.326;2022-08-19T13:13:45;13.60;;;6.95;;
44989;SDS011;30723;51.206;3.326;2022-08-19T13:16:13;7.60;;;5.35;;
44989;SDS011;30723;51.206;3.326;2022-08-19T13:18:41;8.38;;;5.55;;
44989;SDS011;30723;51.206;3.326;2022-08-19T13:21:09;9.13;;;5.75;;
44989;SDS011;30723;51.206;3.326;2022-08-19T13:23:38;8.48;;;5.15;;
44989;SDS011;30723;51.206;3.326;2022-08-19T13:26:06;5.38;;;4.22;;
44989;SDS011;30723;51.206;3.326;2022-08-19T13:28:34;8.43;;;4.38;;
44989;SDS011;30723;51.206;3.326;2022-08-19T13:31:20;5.60;;;3.70;;
44989;SDS011;30723;51.206;3.326;2022-08-19T13:34:07;8.75;;;4.50;;
44989;SDS011;30723;51.206;3.326;2022-08-19T13:36:35;7.78;;;3.70;;
44989;SDS011;30723;51.206;3.326;2022-08-19T13:39:03;7.70;;;4.20;;
44989;SDS011;30723;51.206;3.326;2022-08-19T13:41:32;12.07;;;4.20;;
44989;SDS011;30723;51.206;3.326;2022-08-19T13:43:59;5.80;;;3.45;;
44989;SDS011;30723;51.206;3.326;2022-08-19T13:46:27;7.05;;;3.70;;
44989;SDS011;30723;51.206;3.326;2022-08-19T13:48:55;9.02;;;4.10;;
44989;SDS011;30723;51.206;3.326;2022-08-19T13:51:22;8.18;;;4.22;;
44989;SDS011;30723;51.206;3.326;2022-08-19T13:53:49;6.47;;;3.55;;
44989;SDS011;30723;51.206;3.326;2022-08-19T13:56:16;6.63;;;3.38;;
44989;SDS011;30723;51.206;3.326;2022-08-19T13:58:47;12.65;;;3.05;;
44989;SDS011;30723;51.206;3.326;2022-08-19T14:01:18;4.90;;;2.85;;
44989;SDS011;30723;51.206;3.326;2022-08-19T14:03:48;8.82;;;3.10;;
44989;SDS011;30723;51.206;3.326;2022-08-19T14:06:15;7.00;;;2.88;;
44989;SDS011;30723;51.206;3.326;2022-08-19T14:08:43;6.57;;;2.22;;
44989;SDS011;30723;51.206;3.326;2022-08-19T14:11:17;8.95;;;2.63;;
44989;SDS011;30723;51.206;3.326;2022-08-19T14:13:44;3.30;;;1.90;;
44989;SDS011;30723;51.206;3.326;2022-08-19T14:16:12;8.50;;;2.78;;
44989;SDS011;30723;51.206;3.326;2022-08-19T14:18:39;3.83;;;1.73;;
44989;SDS011;30723;51.206;3.326;2022-08-19T14:21:07;6.88;;;2.30;;
44989;SDS011;30723;51.206;3.326;2022-08-19T14:23:40;10.82;;;2.22;;
44989;SDS011;30723;51.206;3.326;2022-08-19T14:26:11;6.28;;;2.42;;
44989;SDS011;30723;51.206;3.326;2022-08-19T14:28:40;6.45;;;2.75;;
44989;SDS011;30723;51.206;3.326;2022-08-19T14:31:12;7.65;;;3.00;;
44989;SDS011;30723;51.206;3.326;2022-08-19T14:33:43;10.25;;;3.40;;
44989;SDS011;30723;51.206;3.326;2022-08-19T14:36:10;5.90;;;2.22;;
44989;SDS011;30723;51.206;3.326;2022-08-19T14:38:37;9.55;;;2.80;;
44989;SDS011;30723;51.206;3.326;2022-08-19T14:41:09;6.57;;;2.55;;
44989;SDS011;30723;51.206;3.326;2022-08-19T14:43:52;7.30;;;2.33;;
44989;SDS011;30723;51.206;3.326;2022-08-19T14:46:21;4.57;;;2.13;;
44989;SDS011;30723;51.206;3.326;2022-08-19T14:48:50;5.63;;;2.38;;
44989;SDS011;30723;51.206;3.326;2022-08-19T14:51:17;5.88;;;2.03;;
44989;SDS011;30723;51.206;3.326;2022-08-19T14:53:45;9.15;;;2.22;;
44989;SDS011;30723;51.206;3.326;2022-08-19T14:56:14;7.40;;;2.22;;
44989;SDS011;30723;51.206;3.326;2022-08-19T14:58:45;4.78;;;2.47;;
44989;SDS011;30723;51.206;3.326;2022-08-19T15:01:20;7.75;;;2.35;;